Aérodrome :
LOGIN :

S'inscrire | Disclaimer

   EN    FR    IT 

 










Légende :    VFR   VFR Marginal   IFR   IFR Intensif   IFR Très Intensif
Visi : 
Plafond : 
>= 8 km
>= 3000ft
5 à 8 km
1000 à 3000 ft
1500m à 5 km
500 à 1000 ft
800 à 1500m
200 à 500 ft
< 800m
< 200 ft
Symboles :   Orages  Brouillard  Fortes neiges  Fortes précipitations  Vent > 20 kt
SIGMETs :   Divers  Orages  Givrage  Turbulence  Onde Orograph.  Cendres Volcan.






- Altitude de l'aérodrome : 1548 ft


LKNA - Náměšť Air Base

DERNIER METAR :
  • 071400Z 22005KT 9999 OVC028 05/03 Q1013 NOSIG RMK BLU BLU

METARs EXPIRÉS :
  • 071300Z 24005KT 9000 OVC026 03/02 Q1013 NOSIG RMK BLU BLU
  • 071200Z 23005KT 4000 BR FEW001 BKN029 00/M01 Q1013 NOSIG RMK GRN GRN

TAF TAF LKNA
Valide du 07 à 12h jusqu'au 08 à 12h UTC


071100Z 0712/0812 19006KT 4000 BR BKN010
PROB30
TEMPO 0712/0714 1500 BR BKN002
BECMG 0713/0715 24008KT 6000 BKN020
TEMPO 0713/0802 26012G22KT
BECMG 0715/0717 9999 BKN030
TEMPO 0715/0812 SCT033



MET'MAP, la Météo Aéronautique d'un coup d'oeil ! - Copyright ORBIFLY Décembre 2007 - Disclaimer

ORBIFLY MET'MAP TEAM :

Programmation & Développement : Alexandra Zaïnal
Sur une idée originale de : Baudouin d'Aumeries
Assistance à la programmation : Marc-Olivier Méhu
Soutien technique & logistique : Manuel Goepfert

Contact : metmap@orbifly.com




SOURCES & CREDITS :

   NOAA